sensor_id;sensor_type;location;lat;lon;timestamp;temperature;humidity
4548;DHT22;2286;51.570;7.090;2023-07-31T00:01:58;15.00;99.90
4548;DHT22;2286;51.570;7.090;2023-07-31T00:04:25;15.00;99.90
4548;DHT22;2286;51.570;7.090;2023-07-31T00:06:52;15.10;99.90
4548;DHT22;2286;51.570;7.090;2023-07-31T00:09:19;15.10;99.90
4548;DHT22;2286;51.570;7.090;2023-07-31T00:11:46;15.10;99.90
4548;DHT22;2286;51.570;7.090;2023-07-31T00:14:13;15.10;99.90
4548;DHT22;2286;51.570;7.090;2023-07-31T00:16:41;15.10;99.90
4548;DHT22;2286;51.570;7.090;2023-07-31T00:19:08;15.10;99.90
4548;DHT22;2286;51.570;7.090;2023-07-31T00:21:35;15.10;99.90
4548;DHT22;2286;51.570;7.090;2023-07-31T00:24:02;15.10;99.90
4548;DHT22;2286;51.570;7.090;2023-07-31T00:26:29;15.20;99.90
4548;DHT22;2286;51.570;7.090;2023-07-31T00:28:56;15.20;99.90
4548;DHT22;2286;51.570;7.090;2023-07-31T00:31:23;15.20;99.90
4548;DHT22;2286;51.570;7.090;2023-07-31T00:33:52;15.30;99.90
4548;DHT22;2286;51.570;7.090;2023-07-31T00:36:19;15.40;99.90
4548;DHT22;2286;51.570;7.090;2023-07-31T00:38:46;15.50;99.90
4548;DHT22;2286;51.570;7.090;2023-07-31T00:41:13;15.60;99.90
4548;DHT22;2286;51.570;7.090;2023-07-31T00:43:40;15.70;99.90
4548;DHT22;2286;51.570;7.090;2023-07-31T00:46:07;15.70;99.90
4548;DHT22;2286;51.570;7.090;2023-07-31T00:48:35;15.70;99.90
4548;DHT22;2286;51.570;7.090;2023-07-31T00:51:03;15.80;99.90
4548;DHT22;2286;51.570;7.090;2023-07-31T00:53:31;15.70;99.90
4548;DHT22;2286;51.570;7.090;2023-07-31T00:55:58;15.80;99.90
4548;DHT22;2286;51.570;7.090;2023-07-31T00:58:25;15.70;99.90
4548;DHT22;2286;51.570;7.090;2023-07-31T01:00:52;15.80;99.90
4548;DHT22;2286;51.570;7.090;2023-07-31T01:03:19;15.70;99.90
4548;DHT22;2286;51.570;7.090;2023-07-31T01:05:55;15.80;99.90
4548;DHT22;2286;51.570;7.090;2023-07-31T01:08:32;15.70;99.90
4548;DHT22;2286;51.570;7.090;2023-07-31T01:11:10;15.80;99.90
4548;DHT22;2286;51.570;7.090;2023-07-31T01:13:39;15.80;99.90
4548;DHT22;2286;51.570;7.090;2023-07-31T01:16:06;15.80;99.90
4548;DHT22;2286;51.570;7.090;2023-07-31T01:18:33;15.80;99.90
4548;DHT22;2286;51.570;7.090;2023-07-31T01:21:06;15.80;99.90
4548;DHT22;2286;51.570;7.090;2023-07-31T01:23:56;15.80;99.90
4548;DHT22;2286;51.570;7.090;2023-07-31T01:26:34;15.80;99.90
4548;DHT22;2286;51.570;7.090;2023-07-31T01:29:06;15.80;99.90
4548;DHT22;2286;51.570;7.090;2023-07-31T01:31:34;15.80;99.90
4548;DHT22;2286;51.570;7.090;2023-07-31T01:34:03;15.80;99.90
4548;DHT22;2286;51.570;7.090;2023-07-31T01:36:31;15.80;99.90
4548;DHT22;2286;51.570;7.090;2023-07-31T01:38:58;15.80;99.90
4548;DHT22;2286;51.570;7.090;2023-07-31T01:41:26;15.80;99.90
4548;DHT22;2286;51.570;7.090;2023-07-31T01:43:54;15.80;99.90
4548;DHT22;2286;51.570;7.090;2023-07-31T01:46:21;15.80;99.90
4548;DHT22;2286;51.570;7.090;2023-07-31T01:48:48;15.80;99.90
4548;DHT22;2286;51.570;7.090;2023-07-31T01:51:15;15.80;99.90
4548;DHT22;2286;51.570;7.090;2023-07-31T01:53:42;15.80;99.90
4548;DHT22;2286;51.570;7.090;2023-07-31T01:56:09;15.80;99.90
4548;DHT22;2286;51.570;7.090;2023-07-31T01:58:36;15.80;99.90
4548;DHT22;2286;51.570;7.090;2023-07-31T02:01:05;15.80;99.90
4548;DHT22;2286;51.570;7.090;2023-07-31T02:03:32;15.80;99.90
4548;DHT22;2286;51.570;7.090;2023-07-31T02:05:59;15.80;99.90
4548;DHT22;2286;51.570;7.090;2023-07-31T02:08:26;15.80;99.90
4548;DHT22;2286;51.570;7.090;2023-07-31T02:10:54;15.70;99.90
4548;DHT22;2286;51.570;7.090;2023-07-31T02:13:21;15.70;99.90
4548;DHT22;2286;51.570;7.090;2023-07-31T02:15:48;15.70;99.90
4548;DHT22;2286;51.570;7.090;2023-07-31T02:18:17;15.70;99.90
4548;DHT22;2286;51.570;7.090;2023-07-31T02:20:49;15.70;99.90
4548;DHT22;2286;51.570;7.090;2023-07-31T02:23:16;15.70;99.90
4548;DHT22;2286;51.570;7.090;2023-07-31T02:25:43;15.70;99.90
4548;DHT22;2286;51.570;7.090;2023-07-31T02:28:10;15.70;99.90
4548;DHT22;2286;51.570;7.090;2023-07-31T02:30:38;15.70;99.90
4548;DHT22;2286;51.570;7.090;2023-07-31T02:33:05;15.70;99.90
4548;DHT22;2286;51.570;7.090;2023-07-31T02:35:33;15.70;99.90
4548;DHT22;2286;51.570;7.090;2023-07-31T02:38:00;15.60;99.90
4548;DHT22;2286;51.570;7.090;2023-07-31T02:40:27;15.60;99.90
4548;DHT22;2286;51.570;7.090;2023-07-31T02:42:54;15.60;99.90
4548;DHT22;2286;51.570;7.090;2023-07-31T02:45:21;15.60;99.90
4548;DHT22;2286;51.570;7.090;2023-07-31T02:47:47;15.70;99.90
4548;DHT22;2286;51.570;7.090;2023-07-31T02:50:14;15.70;99.90
4548;DHT22;2286;51.570;7.090;2023-07-31T02:52:42;15.70;99.90
4548;DHT22;2286;51.570;7.090;2023-07-31T02:55:09;15.70;99.90
4548;DHT22;2286;51.570;7.090;2023-07-31T02:57:36;15.70;99.90
4548;DHT22;2286;51.570;7.090;2023-07-31T03:00:03;15.70;99.90
4548;DHT22;2286;51.570;7.090;2023-07-31T03:02:31;15.60;99.90
4548;DHT22;2286;51.570;7.090;2023-07-31T03:04:58;15.70;99.90
4548;DHT22;2286;51.570;7.090;2023-07-31T03:07:25;15.70;99.90
4548;DHT22;2286;51.570;7.090;2023-07-31T03:09:53;15.70;99.90
4548;DHT22;2286;51.570;7.090;2023-07-31T03:12:20;15.70;99.90
4548;DHT22;2286;51.570;7.090;2023-07-31T03:14:47;15.70;99.90
4548;DHT22;2286;51.570;7.090;2023-07-31T03:17:15;15.70;99.90
4548;DHT22;2286;51.570;7.090;2023-07-31T03:19:41;15.70;99.90
4548;DHT22;2286;51.570;7.090;2023-07-31T03:22:08;15.70;99.90
4548;DHT22;2286;51.570;7.090;2023-07-31T03:24:35;15.70;99.90
4548;DHT22;2286;51.570;7.090;2023-07-31T03:27:04;15.70;99.90
4548;DHT22;2286;51.570;7.090;2023-07-31T03:29:31;15.70;99.90
4548;DHT22;2286;51.570;7.090;2023-07-31T03:31:58;15.70;99.90
4548;DHT22;2286;51.570;7.090;2023-07-31T03:34:25;15.80;99.90
4548;DHT22;2286;51.570;7.090;2023-07-31T03:36:51;15.80;99.90
4548;DHT22;2286;51.570;7.090;2023-07-31T03:39:18;15.90;99.90
4548;DHT22;2286;51.570;7.090;2023-07-31T03:41:45;15.90;99.90
4548;DHT22;2286;51.570;7.090;2023-07-31T03:44:13;15.90;99.90
4548;DHT22;2286;51.570;7.090;2023-07-31T03:46:40;15.90;99.90
4548;DHT22;2286;51.570;7.090;2023-07-31T03:49:07;15.90;99.90
4548;DHT22;2286;51.570;7.090;2023-07-31T03:51:33;15.90;99.90
4548;DHT22;2286;51.570;7.090;2023-07-31T03:54:00;15.90;99.90
4548;DHT22;2286;51.570;7.090;2023-07-31T03:56:27;16.00;99.90
4548;DHT22;2286;51.570;7.090;2023-07-31T03:58:54;16.00;99.90
4548;DHT22;2286;51.570;7.090;2023-07-31T04:01:22;16.00;99.90
4548;DHT22;2286;51.570;7.090;2023-07-31T04:03:49;16.00;99.90
4548;DHT22;2286;51.570;7.090;2023-07-31T04:06:15;16.00;99.90
4548;DHT22;2286;51.570;7.090;2023-07-31T04:08:43;16.00;99.90
4548;DHT22;2286;51.570;7.090;2023-07-31T04:11:10;16.00;99.90
4548;DHT22;2286;51.570;7.090;2023-07-31T04:13:37;16.10;99.90
4548;DHT22;2286;51.570;7.090;2023-07-31T04:16:05;16.10;99.90
4548;DHT22;2286;51.570;7.090;2023-07-31T04:18:33;16.10;99.90
4548;DHT22;2286;51.570;7.090;2023-07-31T04:21:00;16.20;99.90
4548;DHT22;2286;51.570;7.090;2023-07-31T04:23:28;16.20;99.90
4548;DHT22;2286;51.570;7.090;2023-07-31T04:25:54;16.20;99.90
4548;DHT22;2286;51.570;7.090;2023-07-31T04:28:21;16.30;99.90
4548;DHT22;2286;51.570;7.090;2023-07-31T04:30:48;16.40;99.90
4548;DHT22;2286;51.570;7.090;2023-07-31T04:33:15;16.40;99.90
4548;DHT22;2286;51.570;7.090;2023-07-31T04:35:49;16.50;99.90
4548;DHT22;2286;51.570;7.090;2023-07-31T04:38:17;16.40;99.90
4548;DHT22;2286;51.570;7.090;2023-07-31T04:40:44;16.50;99.90
4548;DHT22;2286;51.570;7.090;2023-07-31T04:43:11;16.50;99.90
4548;DHT22;2286;51.570;7.090;2023-07-31T04:45:38;16.50;99.90
4548;DHT22;2286;51.570;7.090;2023-07-31T04:48:05;16.60;99.90
4548;DHT22;2286;51.570;7.090;2023-07-31T04:50:31;16.60;99.90
4548;DHT22;2286;51.570;7.090;2023-07-31T04:52:59;16.50;99.90
4548;DHT22;2286;51.570;7.090;2023-07-31T04:55:26;16.50;99.90
4548;DHT22;2286;51.570;7.090;2023-07-31T04:57:53;16.50;99.90
4548;DHT22;2286;51.570;7.090;2023-07-31T05:00:20;16.50;99.90
4548;DHT22;2286;51.570;7.090;2023-07-31T05:02:47;16.40;99.90
4548;DHT22;2286;51.570;7.090;2023-07-31T05:05:13;16.30;99.90
4548;DHT22;2286;51.570;7.090;2023-07-31T05:07:40;16.30;99.90
4548;DHT22;2286;51.570;7.090;2023-07-31T05:10:09;16.40;99.90
4548;DHT22;2286;51.570;7.090;2023-07-31T05:12:35;16.40;99.90
4548;DHT22;2286;51.570;7.090;2023-07-31T05:15:03;16.40;99.90
4548;DHT22;2286;51.570;7.090;2023-07-31T05:17:30;16.40;99.90
4548;DHT22;2286;51.570;7.090;2023-07-31T05:19:57;16.50;99.90
4548;DHT22;2286;51.570;7.090;2023-07-31T05:22:24;16.60;99.90
4548;DHT22;2286;51.570;7.090;2023-07-31T05:24:50;16.60;99.90
4548;DHT22;2286;51.570;7.090;2023-07-31T05:27:20;16.60;99.90
4548;DHT22;2286;51.570;7.090;2023-07-31T05:29:47;16.60;99.90
4548;DHT22;2286;51.570;7.090;2023-07-31T05:32:14;16.60;99.90
4548;DHT22;2286;51.570;7.090;2023-07-31T05:34:41;16.60;99.90
4548;DHT22;2286;51.570;7.090;2023-07-31T05:37:10;16.60;99.90
4548;DHT22;2286;51.570;7.090;2023-07-31T05:39:37;16.60;99.90
4548;DHT22;2286;51.570;7.090;2023-07-31T05:42:04;16.60;99.90
4548;DHT22;2286;51.570;7.090;2023-07-31T05:44:33;16.50;99.90
4548;DHT22;2286;51.570;7.090;2023-07-31T05:47:00;16.50;99.90
4548;DHT22;2286;51.570;7.090;2023-07-31T05:49:26;16.40;99.90
4548;DHT22;2286;51.570;7.090;2023-07-31T05:51:53;16.30;99.90
4548;DHT22;2286;51.570;7.090;2023-07-31T05:54:20;16.20;99.90
4548;DHT22;2286;51.570;7.090;2023-07-31T05:56:47;16.20;99.90
4548;DHT22;2286;51.570;7.090;2023-07-31T05:59:13;16.20;99.90
4548;DHT22;2286;51.570;7.090;2023-07-31T06:01:42;16.10;99.90
4548;DHT22;2286;51.570;7.090;2023-07-31T06:04:08;16.10;99.90
4548;DHT22;2286;51.570;7.090;2023-07-31T06:06:35;16.10;99.90
4548;DHT22;2286;51.570;7.090;2023-07-31T06:09:02;16.00;99.90
4548;DHT22;2286;51.570;7.090;2023-07-31T06:11:30;16.00;99.90
4548;DHT22;2286;51.570;7.090;2023-07-31T06:13:57;16.00;99.90
4548;DHT22;2286;51.570;7.090;2023-07-31T06:16:23;16.00;99.90
4548;DHT22;2286;51.570;7.090;2023-07-31T06:18:52;16.00;99.90
4548;DHT22;2286;51.570;7.090;2023-07-31T06:21:19;16.00;99.90
4548;DHT22;2286;51.570;7.090;2023-07-31T06:23:45;16.00;99.90
4548;DHT22;2286;51.570;7.090;2023-07-31T06:26:12;15.90;99.90
4548;DHT22;2286;51.570;7.090;2023-07-31T06:28:40;16.00;99.90
4548;DHT22;2286;51.570;7.090;2023-07-31T06:31:06;16.00;99.90
4548;DHT22;2286;51.570;7.090;2023-07-31T06:33:33;16.10;99.90
4548;DHT22;2286;51.570;7.090;2023-07-31T06:36:01;16.10;99.90
4548;DHT22;2286;51.570;7.090;2023-07-31T06:38:28;16.10;99.90
4548;DHT22;2286;51.570;7.090;2023-07-31T06:40:55;16.20;99.90
4548;DHT22;2286;51.570;7.090;2023-07-31T06:43:22;16.20;99.90
4548;DHT22;2286;51.570;7.090;2023-07-31T06:45:48;16.30;99.90
4548;DHT22;2286;51.570;7.090;2023-07-31T06:48:16;16.20;99.90
4548;DHT22;2286;51.570;7.090;2023-07-31T06:50:43;16.30;99.90
4548;DHT22;2286;51.570;7.090;2023-07-31T06:53:11;16.20;99.90
4548;DHT22;2286;51.570;7.090;2023-07-31T06:55:38;16.20;99.90
4548;DHT22;2286;51.570;7.090;2023-07-31T06:58:05;16.20;99.90
4548;DHT22;2286;51.570;7.090;2023-07-31T07:00:32;16.20;99.90
4548;DHT22;2286;51.570;7.090;2023-07-31T07:02:59;16.20;99.90
4548;DHT22;2286;51.570;7.090;2023-07-31T07:05:25;16.30;99.90
4548;DHT22;2286;51.570;7.090;2023-07-31T07:07:53;16.30;99.90
4548;DHT22;2286;51.570;7.090;2023-07-31T07:10:21;16.30;99.90
4548;DHT22;2286;51.570;7.090;2023-07-31T07:12:48;16.30;99.90
4548;DHT22;2286;51.570;7.090;2023-07-31T07:15:15;16.30;99.90
4548;DHT22;2286;51.570;7.090;2023-07-31T07:17:42;16.30;99.90
4548;DHT22;2286;51.570;7.090;2023-07-31T07:20:09;16.30;99.90
4548;DHT22;2286;51.570;7.090;2023-07-31T07:22:36;16.40;99.90
4548;DHT22;2286;51.570;7.090;2023-07-31T07:25:03;16.30;99.90
4548;DHT22;2286;51.570;7.090;2023-07-31T07:27:31;16.30;99.90
4548;DHT22;2286;51.570;7.090;2023-07-31T07:29:58;16.30;99.90
4548;DHT22;2286;51.570;7.090;2023-07-31T07:32:25;16.30;99.90
4548;DHT22;2286;51.570;7.090;2023-07-31T07:34:52;16.30;99.90
4548;DHT22;2286;51.570;7.090;2023-07-31T07:37:19;16.40;99.90
4548;DHT22;2286;51.570;7.090;2023-07-31T07:39:45;16.40;99.90
4548;DHT22;2286;51.570;7.090;2023-07-31T07:42:12;16.30;99.90
4548;DHT22;2286;51.570;7.090;2023-07-31T07:44:40;16.30;99.90
4548;DHT22;2286;51.570;7.090;2023-07-31T07:47:07;16.30;99.90
4548;DHT22;2286;51.570;7.090;2023-07-31T07:49:34;16.30;99.90
4548;DHT22;2286;51.570;7.090;2023-07-31T07:52:02;16.30;99.90
4548;DHT22;2286;51.570;7.090;2023-07-31T07:54:29;16.30;99.90
4548;DHT22;2286;51.570;7.090;2023-07-31T07:56:56;16.30;99.90
4548;DHT22;2286;51.570;7.090;2023-07-31T07:59:23;16.40;99.90
4548;DHT22;2286;51.570;7.090;2023-07-31T08:01:51;16.40;99.90
4548;DHT22;2286;51.570;7.090;2023-07-31T08:04:18;16.40;99.90
4548;DHT22;2286;51.570;7.090;2023-07-31T08:06:45;16.40;99.90
4548;DHT22;2286;51.570;7.090;2023-07-31T08:09:12;16.50;99.90
4548;DHT22;2286;51.570;7.090;2023-07-31T08:11:39;16.50;99.90
4548;DHT22;2286;51.570;7.090;2023-07-31T08:14:05;16.40;99.90
4548;DHT22;2286;51.570;7.090;2023-07-31T08:16:32;16.40;99.90
4548;DHT22;2286;51.570;7.090;2023-07-31T08:19:00;16.40;99.90
4548;DHT22;2286;51.570;7.090;2023-07-31T08:21:27;16.40;99.90
4548;DHT22;2286;51.570;7.090;2023-07-31T08:23:54;16.30;99.90
4548;DHT22;2286;51.570;7.090;2023-07-31T08:26:21;16.30;99.90
4548;DHT22;2286;51.570;7.090;2023-07-31T08:28:48;16.30;99.90
4548;DHT22;2286;51.570;7.090;2023-07-31T08:31:15;16.30;99.90
4548;DHT22;2286;51.570;7.090;2023-07-31T08:33:42;16.30;99.90
4548;DHT22;2286;51.570;7.090;2023-07-31T08:36:10;16.30;99.90
4548;DHT22;2286;51.570;7.090;2023-07-31T08:38:36;16.30;99.90
4548;DHT22;2286;51.570;7.090;2023-07-31T08:41:03;16.30;99.90
4548;DHT22;2286;51.570;7.090;2023-07-31T08:43:31;16.30;99.90
4548;DHT22;2286;51.570;7.090;2023-07-31T08:45:59;16.20;99.90
4548;DHT22;2286;51.570;7.090;2023-07-31T08:48:26;16.20;99.90
4548;DHT22;2286;51.570;7.090;2023-07-31T08:50:54;16.20;99.90
4548;DHT22;2286;51.570;7.090;2023-07-31T08:53:22;16.20;99.90
4548;DHT22;2286;51.570;7.090;2023-07-31T08:55:50;16.30;99.90
4548;DHT22;2286;51.570;7.090;2023-07-31T08:58:19;16.20;99.90
4548;DHT22;2286;51.570;7.090;2023-07-31T09:00:47;16.20;99.90
4548;DHT22;2286;51.570;7.090;2023-07-31T09:03:16;16.20;99.90
4548;DHT22;2286;51.570;7.090;2023-07-31T09:05:45;16.20;99.90
4548;DHT22;2286;51.570;7.090;2023-07-31T09:08:13;16.20;99.90
4548;DHT22;2286;51.570;7.090;2023-07-31T09:10:42;16.20;99.90
4548;DHT22;2286;51.570;7.090;2023-07-31T09:13:11;16.30;99.90
4548;DHT22;2286;51.570;7.090;2023-07-31T09:15:39;16.30;99.90
4548;DHT22;2286;51.570;7.090;2023-07-31T09:18:07;16.40;99.90
4548;DHT22;2286;51.570;7.090;2023-07-31T09:20:34;16.30;99.90
4548;DHT22;2286;51.570;7.090;2023-07-31T09:23:08;16.30;99.90
4548;DHT22;2286;51.570;7.090;2023-07-31T09:25:36;16.30;99.90
4548;DHT22;2286;51.570;7.090;2023-07-31T09:28:06;16.30;99.90
4548;DHT22;2286;51.570;7.090;2023-07-31T09:30:46;16.20;99.90
4548;DHT22;2286;51.570;7.090;2023-07-31T09:33:13;16.30;99.90
4548;DHT22;2286;51.570;7.090;2023-07-31T09:35:40;16.50;99.90
4548;DHT22;2286;51.570;7.090;2023-07-31T09:38:09;16.50;99.90
4548;DHT22;2286;51.570;7.090;2023-07-31T09:40:37;16.50;99.90
4548;DHT22;2286;51.570;7.090;2023-07-31T09:43:06;16.50;99.90
4548;DHT22;2286;51.570;7.090;2023-07-31T09:45:35;16.60;99.90
4548;DHT22;2286;51.570;7.090;2023-07-31T09:48:03;16.50;99.90
4548;DHT22;2286;51.570;7.090;2023-07-31T09:50:36;16.60;99.90
4548;DHT22;2286;51.570;7.090;2023-07-31T09:53:03;16.60;99.90
4548;DHT22;2286;51.570;7.090;2023-07-31T09:55:30;16.70;99.90
4548;DHT22;2286;51.570;7.090;2023-07-31T09:57:58;16.70;99.90
4548;DHT22;2286;51.570;7.090;2023-07-31T10:00:26;16.70;99.90
4548;DHT22;2286;51.570;7.090;2023-07-31T10:02:54;16.60;99.90
4548;DHT22;2286;51.570;7.090;2023-07-31T10:05:28;16.70;99.90
4548;DHT22;2286;51.570;7.090;2023-07-31T10:07:57;16.70;99.90
4548;DHT22;2286;51.570;7.090;2023-07-31T10:10:25;16.70;99.90
4548;DHT22;2286;51.570;7.090;2023-07-31T10:12:53;16.70;99.90
4548;DHT22;2286;51.570;7.090;2023-07-31T10:15:20;16.60;99.90
4548;DHT22;2286;51.570;7.090;2023-07-31T10:17:50;16.70;99.90
4548;DHT22;2286;51.570;7.090;2023-07-31T10:20:17;16.70;99.90
4548;DHT22;2286;51.570;7.090;2023-07-31T10:22:44;16.70;99.90
4548;DHT22;2286;51.570;7.090;2023-07-31T10:25:11;16.70;99.90
4548;DHT22;2286;51.570;7.090;2023-07-31T10:27:39;16.70;99.90
4548;DHT22;2286;51.570;7.090;2023-07-31T10:30:08;16.80;99.90
4548;DHT22;2286;51.570;7.090;2023-07-31T10:32:38;16.80;99.90
4548;DHT22;2286;51.570;7.090;2023-07-31T10:35:07;16.80;99.90
4548;DHT22;2286;51.570;7.090;2023-07-31T10:37:37;16.80;99.90
4548;DHT22;2286;51.570;7.090;2023-07-31T10:40:06;16.80;99.90
4548;DHT22;2286;51.570;7.090;2023-07-31T10:42:35;16.70;99.90
4548;DHT22;2286;51.570;7.090;2023-07-31T10:45:04;16.70;99.90
4548;DHT22;2286;51.570;7.090;2023-07-31T10:47:36;16.70;99.90
4548;DHT22;2286;51.570;7.090;2023-07-31T10:50:17;16.60;99.90
4548;DHT22;2286;51.570;7.090;2023-07-31T10:52:47;16.60;99.90
4548;DHT22;2286;51.570;7.090;2023-07-31T10:55:31;16.70;99.90
4548;DHT22;2286;51.570;7.090;2023-07-31T10:58:06;16.70;99.90
4548;DHT22;2286;51.570;7.090;2023-07-31T11:00:33;16.60;99.90
4548;DHT22;2286;51.570;7.090;2023-07-31T11:03:04;16.70;99.90
4548;DHT22;2286;51.570;7.090;2023-07-31T11:05:47;16.70;99.90
4548;DHT22;2286;51.570;7.090;2023-07-31T11:08:16;16.80;99.90
4548;DHT22;2286;51.570;7.090;2023-07-31T11:10:44;16.90;99.90
4548;DHT22;2286;51.570;7.090;2023-07-31T11:13:12;17.00;99.90
4548;DHT22;2286;51.570;7.090;2023-07-31T11:15:39;17.00;99.90
4548;DHT22;2286;51.570;7.090;2023-07-31T11:18:06;17.00;99.90
4548;DHT22;2286;51.570;7.090;2023-07-31T11:20:35;17.10;99.90
4548;DHT22;2286;51.570;7.090;2023-07-31T11:23:05;17.00;99.90
4548;DHT22;2286;51.570;7.090;2023-07-31T11:25:32;17.00;99.90
4548;DHT22;2286;51.570;7.090;2023-07-31T11:28:03;17.00;99.90
4548;DHT22;2286;51.570;7.090;2023-07-31T11:30:30;17.00;99.90
4548;DHT22;2286;51.570;7.090;2023-07-31T11:32:57;17.10;99.90
4548;DHT22;2286;51.570;7.090;2023-07-31T11:35:23;17.10;99.90
4548;DHT22;2286;51.570;7.090;2023-07-31T11:37:50;17.20;99.90
4548;DHT22;2286;51.570;7.090;2023-07-31T11:40:18;17.20;99.90
4548;DHT22;2286;51.570;7.090;2023-07-31T11:42:45;17.20;99.90
4548;DHT22;2286;51.570;7.090;2023-07-31T11:45:12;17.20;99.90
4548;DHT22;2286;51.570;7.090;2023-07-31T11:47:39;17.30;99.90
4548;DHT22;2286;51.570;7.090;2023-07-31T11:50:10;17.30;99.90
4548;DHT22;2286;51.570;7.090;2023-07-31T11:52:39;17.40;99.90
4548;DHT22;2286;51.570;7.090;2023-07-31T11:55:08;17.60;99.90
4548;DHT22;2286;51.570;7.090;2023-07-31T11:57:38;17.60;99.90
4548;DHT22;2286;51.570;7.090;2023-07-31T12:00:07;17.70;99.90
4548;DHT22;2286;51.570;7.090;2023-07-31T12:02:35;17.70;99.90
4548;DHT22;2286;51.570;7.090;2023-07-31T12:05:02;17.70;99.90
4548;DHT22;2286;51.570;7.090;2023-07-31T12:07:43;17.60;99.90
4548;DHT22;2286;51.570;7.090;2023-07-31T12:10:10;17.60;99.90
4548;DHT22;2286;51.570;7.090;2023-07-31T12:12:38;17.60;99.90
4548;DHT22;2286;51.570;7.090;2023-07-31T12:15:14;17.70;99.90
4548;DHT22;2286;51.570;7.090;2023-07-31T12:17:41;17.80;99.90
4548;DHT22;2286;51.570;7.090;2023-07-31T12:20:09;17.70;99.90
4548;DHT22;2286;51.570;7.090;2023-07-31T12:22:36;17.80;99.90
4548;DHT22;2286;51.570;7.090;2023-07-31T12:25:04;17.70;99.90
4548;DHT22;2286;51.570;7.090;2023-07-31T12:27:33;17.70;99.90
4548;DHT22;2286;51.570;7.090;2023-07-31T12:30:04;17.70;99.90
4548;DHT22;2286;51.570;7.090;2023-07-31T12:32:31;17.70;99.90
4548;DHT22;2286;51.570;7.090;2023-07-31T12:34:59;17.70;99.90
4548;DHT22;2286;51.570;7.090;2023-07-31T12:37:28;17.60;99.90
4548;DHT22;2286;51.570;7.090;2023-07-31T12:39:55;17.60;99.90
4548;DHT22;2286;51.570;7.090;2023-07-31T12:42:26;17.60;99.90
4548;DHT22;2286;51.570;7.090;2023-07-31T12:44:53;17.60;99.90
4548;DHT22;2286;51.570;7.090;2023-07-31T12:47:21;17.60;99.90
4548;DHT22;2286;51.570;7.090;2023-07-31T12:49:47;17.60;99.90
4548;DHT22;2286;51.570;7.090;2023-07-31T12:52:14;17.60;99.90
4548;DHT22;2286;51.570;7.090;2023-07-31T12:54:41;17.70;99.90
4548;DHT22;2286;51.570;7.090;2023-07-31T12:57:08;17.80;99.90
4548;DHT22;2286;51.570;7.090;2023-07-31T12:59:35;17.90;99.90
4548;DHT22;2286;51.570;7.090;2023-07-31T13:02:01;18.00;99.90
4548;DHT22;2286;51.570;7.090;2023-07-31T13:04:29;18.20;99.90
4548;DHT22;2286;51.570;7.090;2023-07-31T13:06:56;18.10;99.90
4548;DHT22;2286;51.570;7.090;2023-07-31T13:09:23;18.20;99.90
4548;DHT22;2286;51.570;7.090;2023-07-31T13:11:50;18.20;99.90
4548;DHT22;2286;51.570;7.090;2023-07-31T13:14:17;18.20;99.90
4548;DHT22;2286;51.570;7.090;2023-07-31T13:16:44;18.10;99.90
4548;DHT22;2286;51.570;7.090;2023-07-31T13:19:09;18.10;99.90
4548;DHT22;2286;51.570;7.090;2023-07-31T13:21:37;18.10;99.90
4548;DHT22;2286;51.570;7.090;2023-07-31T13:24:05;18.10;99.90
4548;DHT22;2286;51.570;7.090;2023-07-31T13:26:32;18.10;99.90
4548;DHT22;2286;51.570;7.090;2023-07-31T13:28:59;18.20;99.90
4548;DHT22;2286;51.570;7.090;2023-07-31T13:31:26;18.10;99.90
4548;DHT22;2286;51.570;7.090;2023-07-31T13:33:53;18.10;99.90
4548;DHT22;2286;51.570;7.090;2023-07-31T13:36:20;18.10;99.90
4548;DHT22;2286;51.570;7.090;2023-07-31T13:38:48;18.10;99.90
4548;DHT22;2286;51.570;7.090;2023-07-31T13:41:14;18.20;99.90
4548;DHT22;2286;51.570;7.090;2023-07-31T13:43:41;18.10;99.90
4548;DHT22;2286;51.570;7.090;2023-07-31T13:46:08;18.10;99.90
4548;DHT22;2286;51.570;7.090;2023-07-31T13:48:36;18.20;99.90
4548;DHT22;2286;51.570;7.090;2023-07-31T13:51:03;18.20;99.90
4548;DHT22;2286;51.570;7.090;2023-07-31T13:53:30;18.10;99.90
4548;DHT22;2286;51.570;7.090;2023-07-31T13:55:58;18.00;99.90
4548;DHT22;2286;51.570;7.090;2023-07-31T13:58:25;18.00;99.90
4548;DHT22;2286;51.570;7.090;2023-07-31T14:00:52;18.00;99.90
4548;DHT22;2286;51.570;7.090;2023-07-31T14:03:18;18.10;99.90
4548;DHT22;2286;51.570;7.090;2023-07-31T14:05:45;18.10;99.90
4548;DHT22;2286;51.570;7.090;2023-07-31T14:08:12;18.10;99.90
4548;DHT22;2286;51.570;7.090;2023-07-31T14:10:39;18.20;99.90
4548;DHT22;2286;51.570;7.090;2023-07-31T14:13:07;18.20;99.90
4548;DHT22;2286;51.570;7.090;2023-07-31T14:15:34;18.10;99.90
4548;DHT22;2286;51.570;7.090;2023-07-31T14:18:01;18.20;99.90
4548;DHT22;2286;51.570;7.090;2023-07-31T14:20:28;18.40;99.90
4548;DHT22;2286;51.570;7.090;2023-07-31T14:22:55;18.90;99.90
4548;DHT22;2286;51.570;7.090;2023-07-31T14:25:22;19.40;99.90
4548;DHT22;2286;51.570;7.090;2023-07-31T14:27:48;19.70;99.90
4548;DHT22;2286;51.570;7.090;2023-07-31T14:30:17;20.20;62.20
4548;DHT22;2286;51.570;7.090;2023-07-31T14:32:43;20.10;1.00
4548;DHT22;2286;51.570;7.090;2023-07-31T14:35:10;20.00;27.50
4548;DHT22;2286;51.570;7.090;2023-07-31T14:37:38;19.80;1.00
4548;DHT22;2286;51.570;7.090;2023-07-31T14:40:05;19.70;1.00
4548;DHT22;2286;51.570;7.090;2023-07-31T14:42:32;19.60;99.90
4548;DHT22;2286;51.570;7.090;2023-07-31T14:44:59;19.50;99.90
4548;DHT22;2286;51.570;7.090;2023-07-31T14:47:27;19.30;1.00
4548;DHT22;2286;51.570;7.090;2023-07-31T14:49:56;19.30;1.00
4548;DHT22;2286;51.570;7.090;2023-07-31T14:52:23;19.10;1.00
4548;DHT22;2286;51.570;7.090;2023-07-31T14:54:50;19.00;1.00
4548;DHT22;2286;51.570;7.090;2023-07-31T14:57:16;19.00;1.00
4548;DHT22;2286;51.570;7.090;2023-07-31T14:59:44;18.90;1.00
4548;DHT22;2286;51.570;7.090;2023-07-31T15:02:11;18.80;1.00
4548;DHT22;2286;51.570;7.090;2023-07-31T15:04:40;18.80;6.50
4548;DHT22;2286;51.570;7.090;2023-07-31T15:07:07;18.70;65.40
4548;DHT22;2286;51.570;7.090;2023-07-31T15:09:33;18.70;52.80
4548;DHT22;2286;51.570;7.090;2023-07-31T15:12:01;18.60;21.70
4548;DHT22;2286;51.570;7.090;2023-07-31T15:14:28;18.60;99.90
4548;DHT22;2286;51.570;7.090;2023-07-31T15:16:56;18.60;99.90
4548;DHT22;2286;51.570;7.090;2023-07-31T15:19:23;18.50;99.90
4548;DHT22;2286;51.570;7.090;2023-07-31T15:21:51;18.50;99.90
4548;DHT22;2286;51.570;7.090;2023-07-31T15:24:18;18.40;99.90
4548;DHT22;2286;51.570;7.090;2023-07-31T15:26:45;18.40;99.90
4548;DHT22;2286;51.570;7.090;2023-07-31T15:29:12;18.30;99.90
4548;DHT22;2286;51.570;7.090;2023-07-31T15:31:44;18.20;99.90
4548;DHT22;2286;51.570;7.090;2023-07-31T15:34:12;18.20;99.90
4548;DHT22;2286;51.570;7.090;2023-07-31T15:36:39;18.20;99.90
4548;DHT22;2286;51.570;7.090;2023-07-31T15:39:08;18.10;99.90
4548;DHT22;2286;51.570;7.090;2023-07-31T15:41:35;18.20;99.90
4548;DHT22;2286;51.570;7.090;2023-07-31T15:44:01;18.20;99.90
4548;DHT22;2286;51.570;7.090;2023-07-31T15:46:28;18.30;99.90
4548;DHT22;2286;51.570;7.090;2023-07-31T15:48:55;18.30;99.90
4548;DHT22;2286;51.570;7.090;2023-07-31T15:51:22;18.30;99.90
4548;DHT22;2286;51.570;7.090;2023-07-31T15:53:49;18.40;99.90
4548;DHT22;2286;51.570;7.090;2023-07-31T15:56:17;18.40;99.90
4548;DHT22;2286;51.570;7.090;2023-07-31T15:58:44;18.40;99.90
4548;DHT22;2286;51.570;7.090;2023-07-31T16:01:11;18.50;99.90
4548;DHT22;2286;51.570;7.090;2023-07-31T16:03:38;18.50;99.90
4548;DHT22;2286;51.570;7.090;2023-07-31T16:06:05;18.60;1.00